Time;durP1;ratioP1;P1;durP2;ratioP2;P2;SDS_P1;SDS_P2;PMS_P1;PMS_P2;Temp;Humidity;BMP_temperature;BMP_pressure;BME280_temperature;BME280_humidity;BME280_pressure;Samples;Min_cycle;Max_cycle;Signal;HPM_P1;HPM_P2
2022/01/10 00:00:19;;;;;;;23.02;11.13;;;;;;;-16.36;62.34;101330.03;4887321;29;20052;-81
2022/01/10 00:02:47;;;;;;;20.75;9.00;;;;;;;-16.34;62.12;101330.13;4902923;29;20083;-83
2022/01/10 00:05:13;;;;;;;17.65;9.15;;;;;;;-16.33;62.23;101331.91;4887109;29;20071;-81
2022/01/10 00:07:39;;;;;;;14.90;8.60;;;;;;;-16.39;62.36;101313.59;4902924;29;20050;-81
2022/01/10 00:10:06;;;;;;;36.50;10.20;;;;;;;-16.33;62.76;101321.66;4902459;29;20041;-80
2022/01/10 00:12:32;;;;;;;27.25;10.30;;;;;;;-16.36;62.14;101312.09;4902937;29;20056;-81
2022/01/10 00:14:58;;;;;;;22.90;9.38;;;;;;;-16.29;62.46;101321.03;4903041;29;20074;-81
2022/01/10 00:17:24;;;;;;;23.50;11.73;;;;;;;-16.31;62.21;101309.84;4887612;29;20068;-80
2022/01/10 00:19:50;;;;;;;22.38;10.88;;;;;;;-16.32;62.54;101297.81;4887440;29;20404;-80
2022/01/10 00:22:16;;;;;;;27.50;9.75;;;;;;;-16.31;62.42;101295.34;4904242;29;20091;-79
2022/01/10 00:24:42;;;;;;;21.30;8.43;;;;;;;-16.38;62.91;101288.09;4887780;29;20420;-80
2022/01/10 00:27:08;;;;;;;14.52;8.23;;;;;;;-16.30;62.35;101301.34;4903493;29;20055;-81
2022/01/10 00:29:35;;;;;;;18.98;9.23;;;;;;;-16.31;62.84;101291.91;4902808;29;20084;-79
2022/01/10 00:32:01;;;;;;;16.83;9.00;;;;;;;-16.34;62.62;101278.94;4871194;29;20531;-80
2022/01/10 00:34:27;;;;;;;11.60;7.22;;;;;;;-16.27;62.41;101304.09;4887319;29;20051;-79
2022/01/10 00:36:53;;;;;;;18.10;7.93;;;;;;;-16.30;62.29;101296.25;4903749;29;20040;-80
2022/01/10 00:39:20;;;;;;;11.68;7.22;;;;;;;-16.30;62.40;101297.13;4871415;29;20048;-80
2022/01/10 00:41:46;;;;;;;13.48;7.63;;;;;;;-16.35;62.36;101282.28;4902552;29;20107;-83
2022/01/10 00:44:15;;;;;;;18.45;9.07;;;;;;;-16.34;62.39;101278.94;4902534;29;20575;-84
2022/01/10 00:46:41;;;;;;;13.63;7.57;;;;;;;-16.37;62.41;101273.63;4886808;29;20055;-83
2022/01/10 00:49:08;;;;;;;24.30;9.57;;;;;;;-16.37;62.24;101283.88;4887262;29;20043;-83
2022/01/10 00:51:34;;;;;;;21.63;10.38;;;;;;;-16.45;62.15;101279.19;4871812;29;20044;-82
2022/01/10 00:54:00;;;;;;;24.13;10.85;;;;;;;-16.48;62.56;101279.00;4871417;29;20094;-81
2022/01/10 00:56:26;;;;;;;28.02;13.73;;;;;;;-16.49;62.67;101279.78;4883591;29;20040;-77
2022/01/10 00:58:52;;;;;;;34.08;16.80;;;;;;;-16.52;62.77;101274.50;4915106;29;20523;-77
2022/01/10 01:01:18;;;;;;;30.02;13.68;;;;;;;-16.67;62.64;101255.66;4899327;29;20509;-78
2022/01/10 01:03:45;;;;;;;26.35;10.65;;;;;;;-16.67;62.97;101265.91;4899444;29;20044;-77
2022/01/10 01:06:12;;;;;;;25.30;12.07;;;;;;;-16.74;63.16;101241.66;4883757;29;20048;-76
2022/01/10 01:08:39;;;;;;;14.57;9.45;;;;;;;-16.66;62.93;101265.09;4884131;29;20049;-78
2022/01/10 01:13:58;;;;;;;16.23;9.07;;;;;;;-16.69;62.78;101250.47;4905643;29;20063;-78
2022/01/10 01:24:17;;;;;;;24.52;7.50;;;;;;;-16.86;62.36;101227.25;4915199;29;20041;-77
2022/01/10 01:26:48;;;;;;;14.48;8.23;;;;;;;-16.83;62.74;101228.34;4899428;29;20139;-78
2022/01/10 01:29:18;;;;;;;16.35;8.57;;;;;;;-16.88;62.40;101216.97;4898988;29;20051;-77
2022/01/10 01:31:44;;;;;;;20.65;8.55;;;;;;;-16.88;62.66;101221.16;4898667;29;20049;-77
2022/01/10 01:34:12;;;;;;;15.02;7.50;;;;;;;-16.89;62.64;101209.16;4883266;29;20139;-77
2022/01/10 01:36:39;;;;;;;17.13;8.57;;;;;;;-16.83;62.50;101204.44;4882510;29;20092;-77
2022/01/10 01:39:16;;;;;;;33.30;9.50;;;;;;;-16.85;62.41;101206.00;4883222;29;20513;-77
2022/01/10 01:41:43;;;;;;;24.90;9.05;;;;;;;-16.85;62.36;101217.13;4884337;29;20060;-78
2022/01/10 01:44:09;;;;;;;34.30;9.68;;;;;;;-16.81;62.52;101219.09;4883024;29;20052;-78
2022/01/10 01:46:35;;;;;;;18.90;8.93;;;;;;;-16.85;62.31;101200.88;4898316;29;20044;-77
2022/01/10 01:49:02;;;;;;;39.17;8.93;;;;;;;-16.78;62.01;101197.91;4898282;29;20048;-77
2022/01/10 01:51:29;;;;;;;21.20;9.13;;;;;;;-16.69;62.24;101213.78;4867273;29;20139;-78
2022/01/10 01:53:55;;;;;;;14.18;8.15;;;;;;;-16.68;61.75;101205.31;4883486;29;20131;-79
2022/01/10 01:56:21;;;;;;;12.13;7.70;;;;;;;-16.67;61.57;101197.69;4898426;29;20530;-78
2022/01/10 01:58:48;;;;;;;18.77;9.35;;;;;;;-16.67;61.76;101197.69;4898476;29;20128;-76
2022/01/10 02:01:16;;;;;;;14.02;7.97;;;;;;;-16.66;61.27;101199.50;4914080;29;20176;-78
2022/01/10 02:03:43;;;;;;;13.55;8.25;;;;;;;-16.71;61.59;101207.66;4898054;29;20044;-79
2022/01/10 02:06:11;;;;;;;19.60;10.00;;;;;;;-16.74;61.48;101199.84;4898338;29;20051;-77
2022/01/10 02:08:38;;;;;;;16.15;9.20;;;;;;;-16.73;61.66;101196.53;4913615;29;20044;-78
2022/01/10 02:11:08;;;;;;;15.38;8.38;;;;;;;-16.81;61.41;101187.47;4882446;29;20496;-76
2022/01/10 02:13:34;;;;;;;23.60;9.32;;;;;;;-16.84;61.45;101188.22;4898003;29;20386;-77
2022/01/10 02:16:08;;;;;;;17.52;8.55;;;;;;;-16.87;61.42;101187.13;4882554;29;20100;-78
2022/01/10 02:18:38;;;;;;;12.25;5.72;;;;;;;-16.86;61.11;101183.78;4882449;29;20481;-77
2022/01/10 02:21:05;;;;;;;16.27;7.15;;;;;;;-16.80;61.15;101189.28;4882504;29;20055;-77
2022/01/10 02:23:34;;;;;;;8.98;6.53;;;;;;;-16.81;60.92;101175.59;4883122;29;20100;-77
2022/01/10 02:26:06;;;;;;;16.20;7.65;;;;;;;-16.82;60.94;101178.06;4883027;29;20085;-77
2022/01/10 02:28:35;;;;;;;15.13;7.03;;;;;;;-16.83;60.46;101179.72;4884779;29;20123;-79
2022/01/10 02:31:01;;;;;;;11.23;7.15;;;;;;;-16.85;60.63;101170.19;4890267;29;20112;-78
2022/01/10 02:33:28;;;;;;;14.45;9.40;;;;;;;-16.82;60.78;101180.59;4901254;29;20571;-76
2022/01/10 02:38:30;;;;;;;16.98;7.55;;;;;;;-16.80;60.64;101179.03;4868098;29;20048;-78
2022/01/10 02:40:58;;;;;;;16.92;7.07;;;;;;;-16.80;60.40;101176.47;4882616;29;20118;-79
2022/01/10 02:43:25;;;;;;;17.73;7.27;;;;;;;-16.82;60.36;101162.72;4866711;29;20045;-77
2022/01/10 02:45:50;;;;;;;17.77;8.15;;;;;;;-16.77;60.63;101166.41;4867376;29;20055;-77
2022/01/10 02:48:17;;;;;;;12.95;7.68;;;;;;;-16.75;60.59;101159.72;4866347;29;20405;-77
2022/01/10 02:50:43;;;;;;;15.93;9.05;;;;;;;-16.74;60.54;101164.03;4897218;29;20049;-77
2022/01/10 02:53:10;;;;;;;18.15;8.77;;;;;;;-16.72;60.58;101167.53;4913131;29;20177;-77
2022/01/10 02:55:38;;;;;;;18.25;8.60;;;;;;;-16.77;60.45;101159.63;4866683;29;20135;-77
2022/01/10 02:58:03;;;;;;;18.58;8.50;;;;;;;-16.76;60.46;101161.41;4881518;29;20048;-77
2022/01/10 03:00:30;;;;;;;20.83;11.00;;;;;;;-16.69;60.92;101167.72;4881416;29;20134;-78
2022/01/10 03:02:57;;;;;;;19.95;9.70;;;;;;;-16.71;60.64;101159.06;4865360;29;20192;-78
2022/01/10 03:05:25;;;;;;;15.98;9.13;;;;;;;-16.68;60.86;101154.13;4881302;29;20409;-77
2022/01/10 03:07:52;;;;;;;25.27;11.55;;;;;;;-16.63;60.64;101155.25;4881506;29;20108;-78
2022/01/10 03:10:18;;;;;;;21.52;10.88;;;;;;;-16.59;60.60;101154.66;4881404;29;20049;-78
2022/01/10 03:12:44;;;;;;;25.60;10.77;;;;;;;-16.58;60.69;101151.31;4897170;29;20072;-76
2022/01/10 03:15:12;;;;;;;20.83;11.95;;;;;;;-16.52;60.94;101145.66;4897469;29;20457;-79
2022/01/10 03:17:39;;;;;;;31.20;13.15;;;;;;;-16.57;60.28;101137.72;4851080;29;20131;-77
2022/01/10 03:20:06;;;;;;;26.98;12.27;;;;;;;-16.49;60.65;101149.25;4896672;29;20047;-77
2022/01/10 03:22:32;;;;;;;30.52;11.85;;;;;;;-16.52;61.04;101135.41;4880912;29;20053;-78
2022/01/10 03:24:58;;;;;;;25.60;12.38;;;;;;;-16.44;61.06;101147.84;4896842;29;20184;-79
2022/01/10 03:27:25;;;;;;;20.90;12.32;;;;;;;-16.41;61.08;101150.56;4865664;29;20048;-78
2022/01/10 03:29:53;;;;;;;28.80;13.35;;;;;;;-16.38;60.92;101137.06;4880934;29;20420;-78
2022/01/10 03:32:20;;;;;;;28.08;13.70;;;;;;;-16.34;61.21;101150.94;4850242;29;20135;-77
2022/01/10 03:34:46;;;;;;;30.05;14.13;;;;;;;-16.32;61.36;101134.88;4865648;29;20153;-78
2022/01/10 03:37:12;;;;;;;22.10;11.60;;;;;;;-16.25;61.10;101149.75;4896745;29;20599;-78
2022/01/10 03:39:42;;;;;;;26.27;13.93;;;;;;;-16.22;61.23;101141.38;4850425;29;20554;-77
2022/01/10 03:42:09;;;;;;;26.85;13.68;;;;;;;-16.21;61.08;101140.56;4896276;29;20045;-79
2022/01/10 03:44:35;;;;;;;31.08;12.85;;;;;;;-16.15;60.85;101147.72;4885036;29;20426;-78
2022/01/10 03:47:02;;;;;;;23.58;11.75;;;;;;;-16.20;60.89;101130.44;4899431;29;20135;-78
2022/01/10 03:49:29;;;;;;;27.02;13.80;;;;;;;-16.13;61.13;101128.19;4865098;29;20523;-79
2022/01/10 03:51:56;;;;;;;27.15;12.88;;;;;;;-16.11;60.76;101124.91;4850287;29;20079;-78
2022/01/10 03:54:22;;;;;;;26.67;12.13;;;;;;;-16.05;61.09;101135.53;4881235;29;20472;-78
2022/01/10 03:56:51;;;;;;;25.85;12.27;;;;;;;-16.12;60.67;101118.06;4881287;29;20057;-77
2022/01/10 03:59:17;;;;;;;25.92;11.73;;;;;;;-16.11;61.10;101129.16;4880786;29;20056;-77
2022/01/10 04:01:43;;;;;;;35.97;12.10;;;;;;;-16.05;61.29;101132.06;4865355;29;20072;-77
2022/01/10 04:04:09;;;;;;;22.25;12.18;;;;;;;-16.07;61.18;101124.28;4880931;29;20496;-76
2022/01/10 04:06:35;;;;;;;24.45;12.80;;;;;;;-15.98;60.92;101132.50;4880844;29;20083;-78
2022/01/10 04:09:03;;;;;;;18.23;10.80;;;;;;;-15.98;61.06;101137.63;4912342;29;20044;-77
2022/01/10 04:11:29;;;;;;;23.65;12.73;;;;;;;-15.97;61.31;101139.38;4880949;29;20504;-79
2022/01/10 04:13:55;;;;;;;36.05;12.88;;;;;;;-15.99;61.20;101135.84;4912412;29;20064;-76
2022/01/10 04:16:22;;;;;;;18.17;9.95;;;;;;;-15.88;60.81;101140.66;4865711;29;20056;-76
2022/01/10 04:18:49;;;;;;;16.67;10.15;;;;;;;-15.89;61.36;101141.47;4881012;29;20041;-79
2022/01/10 04:21:15;;;;;;;25.50;13.00;;;;;;;-15.85;61.12;101135.72;4882703;29;20070;-76
2022/01/10 04:23:41;;;;;;;29.30;12.10;;;;;;;-15.82;61.13;101128.19;4886344;29;20496;-79
2022/01/10 04:26:07;;;;;;;35.15;12.60;;;;;;;-15.77;61.47;101134.44;4900096;29;20054;-77
2022/01/10 04:28:35;;;;;;;25.48;13.00;;;;;;;-15.75;61.34;101133.75;4902231;29;20071;-76
2022/01/10 04:31:03;;;;;;;37.78;13.30;;;;;;;-15.67;61.35;101134.16;4905310;29;20506;-77
2022/01/10 04:33:30;;;;;;;;;;;;;;;-15.63;61.15;101135.16;4923134;29;20062;-78
2022/01/10 04:35:58;;;;;;;25.02;9.43;;;;;;;-15.64;61.32;101133.38;4919507;29;20383;-77
2022/01/10 04:38:24;;;;;;;17.92;9.52;;;;;;;-15.64;61.10;101136.84;4919562;29;20131;-77
2022/01/10 04:40:51;;;;;;;30.33;11.02;;;;;;;-15.63;60.78;101138.59;4886929;29;20103;-75
2022/01/10 04:43:18;;;;;;;17.80;10.00;;;;;;;-15.61;60.90;101133.53;4918616;29;20084;-76
2022/01/10 04:45:44;;;;;;;30.58;11.05;;;;;;;-15.68;61.07;101124.72;4902942;29;20573;-79
2022/01/10 04:48:10;;;;;;;23.52;9.68;;;;;;;-15.66;60.54;101135.91;4922401;29;20280;-79
2022/01/10 04:53:07;;;;;;;22.25;11.68;;;;;;;-15.69;60.73;101130.59;4898889;29;20047;-78
2022/01/10 04:55:33;;;;;;;28.10;11.65;;;;;;;-15.59;61.71;101121.72;4915577;29;20143;-75
2022/01/10 04:57:59;;;;;;;29.10;12.15;;;;;;;-15.23;63.12;101130.44;4883579;29;20596;-76
2022/01/10 05:00:25;;;;;;;23.85;12.00;;;;;;;-15.24;61.34;101132.13;4899024;29;20433;-78
2022/01/10 05:02:52;;;;;;;27.05;12.65;;;;;;;-15.19;60.83;101129.81;4867960;29;20052;-77
2022/01/10 05:05:17;;;;;;;20.20;9.35;;;;;;;-15.22;60.57;101142.47;4883779;29;20056;-79
2022/01/10 05:07:43;;;;;;;24.60;9.75;;;;;;;-15.33;59.74;101126.53;4868207;29;20456;-76
2022/01/10 05:10:10;;;;;;;22.52;10.82;;;;;;;-15.35;59.71;101134.94;4883585;29;20048;-77
2022/01/10 05:12:38;;;;;;;20.98;9.48;;;;;;;-15.31;60.07;101129.16;4868115;29;20049;-76
2022/01/10 05:15:04;;;;;;;30.42;9.10;;;;;;;-15.35;59.28;101127.22;4900212;29;20522;-77
2022/01/10 05:17:31;;;;;;;25.48;9.48;;;;;;;-15.36;59.18;101131.47;4883276;29;20151;-78
2022/01/10 05:19:57;;;;;;;19.73;9.52;;;;;;;-15.38;58.82;101119.38;4868143;29;20469;-77
2022/01/10 05:22:23;;;;;;;19.98;10.45;;;;;;;-15.26;58.99;101122.59;4867991;29;20045;-76
2022/01/10 05:24:49;;;;;;;18.27;11.07;;;;;;;-15.19;58.97;101117.00;4914675;29;20139;-77
2022/01/10 05:27:16;;;;;;;25.35;10.57;;;;;;;-15.04;59.41;101115.22;4898329;29;20067;-77
2022/01/10 05:29:42;;;;;;;24.63;11.23;;;;;;;-14.97;58.83;101096.75;4898380;29;20416;-76
2022/01/10 05:32:09;;;;;;;18.80;10.65;;;;;;;-14.82;58.65;101111.13;4898377;29;20117;-77
2022/01/10 05:34:43;;;;;;;23.65;11.65;;;;;;;-14.76;58.70;101114.00;4883492;29;20056;-77
2022/01/10 05:37:09;;;;;;;26.50;13.20;;;;;;;-14.66;58.36;101108.53;4898533;29;20048;-76
2022/01/10 05:39:35;;;;;;;32.10;14.30;;;;;;;-14.55;58.47;101112.50;4898533;29;20396;-78
2022/01/10 05:42:01;;;;;;;35.22;13.98;;;;;;;-14.45;58.19;101104.41;4913436;29;20052;-77
2022/01/10 05:44:28;;;;;;;28.92;14.40;;;;;;;-14.35;58.04;101110.00;4914157;29;20579;-77
2022/01/10 05:46:54;;;;;;;48.05;17.48;;;;;;;-14.24;57.88;101102.00;4898772;29;20215;-77
2022/01/10 05:49:26;;;;;;;35.72;17.08;;;;;;;-14.15;57.79;101103.22;4883516;29;20516;-77
2022/01/10 05:51:54;;;;;;;35.08;16.17;;;;;;;-14.03;57.95;101104.66;4913476;29;20048;-78
2022/01/10 05:54:40;;;;;;;39.83;15.63;;;;;;;-13.90;57.79;101105.25;4884976;29;20063;-78
2022/01/10 05:57:07;;;;;;;48.47;17.13;;;;;;;-13.85;57.70;101090.91;4898098;29;20048;-77
2022/01/10 05:59:37;;;;;;;23.08;13.75;;;;;;;-13.72;56.91;101104.41;4898189;29;20063;-78
2022/01/10 06:02:05;;;;;;;28.80;14.13;;;;;;;-13.65;56.71;101097.88;4882260;29;20136;-76
2022/01/10 06:04:31;;;;;;;25.98;12.93;;;;;;;-13.55;56.75;101105.16;4898316;29;20139;-77
2022/01/10 06:07:05;;;;;;;29.58;14.20;;;;;;;-13.50;56.60;101100.22;4899362;29;20044;-76
2022/01/10 06:09:31;;;;;;;29.73;14.43;;;;;;;-13.37;56.57;101099.09;4866967;29;20041;-76
2022/01/10 06:11:57;;;;;;;32.15;13.20;;;;;;;-13.28;56.15;101100.34;4882695;29;20090;-78
2022/01/10 06:14:23;;;;;;;25.40;11.82;;;;;;;-13.23;55.66;101098.00;4899420;29;20504;-77
2022/01/10 06:16:49;;;;;;;32.90;13.75;;;;;;;-13.18;55.30;101091.31;4886262;29;20076;-78
2022/01/10 06:19:15;;;;;;;26.27;12.68;;;;;;;-13.10;55.65;101084.81;4914203;29;20052;-77
2022/01/10 06:21:41;;;;;;;30.20;14.30;;;;;;;-13.07;55.54;101084.94;4897879;29;20136;-76
2022/01/10 06:24:09;;;;;;;24.25;12.13;;;;;;;-13.03;55.16;101086.84;4913417;29;20045;-78
2022/01/10 06:26:36;;;;;;;32.17;13.10;;;;;;;-12.98;55.77;101085.31;4897852;29;20052;-76
2022/01/10 06:29:02;;;;;;;35.75;14.48;;;;;;;-12.86;55.54;101078.94;4913034;29;20461;-77
2022/01/10 06:31:29;;;;;;;30.20;14.82;;;;;;;-12.77;55.23;101079.34;4897667;29;20052;-77
2022/01/10 06:34:04;;;;;;;30.70;15.60;;;;;;;-12.76;55.55;101076.81;4869257;29;20048;-77
2022/01/10 06:36:31;;;;;;;33.60;14.13;;;;;;;-12.59;55.13;101080.09;4897691;29;20583;-78
2022/01/10 06:38:58;;;;;;;30.60;15.32;;;;;;;-12.53;55.28;101066.56;4881652;29;20044;-79
2022/01/10 06:41:24;;;;;;;33.78;14.50;;;;;;;-12.36;55.70;101069.84;4914473;29;20509;-78
2022/01/10 06:43:50;;;;;;;39.63;16.83;;;;;;;-12.21;55.20;101067.84;4913809;29;20080;-78
2022/01/10 06:46:17;;;;;;;42.13;16.65;;;;;;;-12.12;55.05;101062.16;4881899;29;20484;-78
2022/01/10 06:48:43;;;;;;;47.47;17.75;;;;;;;-12.12;54.86;101060.47;4897213;29;20071;-79
2022/01/10 06:51:09;;;;;;;42.28;16.92;;;;;;;-12.03;54.52;101068.56;4881827;29;20074;-79
2022/01/10 06:53:38;;;;;;;42.55;18.35;;;;;;;-11.92;55.05;101070.66;4865400;29;20044;-77
2022/01/10 06:56:05;;;;;;;43.33;18.92;;;;;;;-11.85;54.83;101060.63;4897289;29;20061;-79
2022/01/10 06:58:33;;;;;;;45.22;21.52;;;;;;;-11.75;54.49;101059.25;4897060;29;20055;-79
2022/01/10 07:01:01;;;;;;;42.05;19.25;;;;;;;-11.62;54.47;101051.16;4896812;29;20116;-77
2022/01/10 07:03:27;;;;;;;39.88;18.23;;;;;;;-11.58;53.87;101042.72;4881291;29;20054;-77
2022/01/10 07:06:05;;;;;;;38.38;17.73;;;;;;;-11.45;53.55;101040.56;4895644;29;20056;-78
2022/01/10 07:08:31;;;;;;;46.85;20.33;;;;;;;-11.43;53.36;101046.63;4881804;29;20096;-76
2022/01/10 07:11:00;;;;;;;48.47;19.38;;;;;;;-11.35;53.19;101034.91;4881560;29;20052;-77
2022/01/10 07:13:29;;;;;;;42.58;19.75;;;;;;;-11.31;53.14;101026.44;4897730;29;20079;-77
2022/01/10 07:15:57;;;;;;;51.70;23.47;;;;;;;-11.27;52.90;101028.31;4898071;29;20116;-78
2022/01/10 07:18:23;;;;;;;55.97;22.08;;;;;;;-11.18;53.40;101023.44;4885354;29;20296;-79
2022/01/10 07:20:52;;;;;;;59.17;23.45;;;;;;;-11.16;53.12;101015.78;4885754;29;20052;-76
2022/01/10 07:23:20;;;;;;;47.55;20.02;;;;;;;-11.14;52.82;101030.47;4914688;29;20052;-77
2022/01/10 07:25:46;;;;;;;48.63;22.25;;;;;;;-11.04;53.25;101021.34;4913052;29;20049;-80
2022/01/10 07:28:12;;;;;;;59.75;25.70;;;;;;;-10.92;52.96;101015.72;4881533;29;20052;-77
2022/01/10 07:30:38;;;;;;;52.38;23.80;;;;;;;-10.80;52.61;101010.94;4913588;29;20112;-78
2022/01/10 07:33:04;;;;;;;72.78;24.92;;;;;;;-10.69;52.02;101014.75;4896485;29;20040;-77
2022/01/10 07:35:30;;;;;;;54.00;23.63;;;;;;;-10.62;51.93;101016.72;4881144;29;20131;-77
2022/01/10 07:37:56;;;;;;;47.95;22.00;;;;;;;-10.53;51.49;101011.84;4912579;29;20067;-77
2022/01/10 07:40:24;;;;;;;51.72;23.52;;;;;;;-10.47;51.47;101010.28;4912126;29;20060;-77
2022/01/10 07:42:50;;;;;;;49.40;21.23;;;;;;;-10.47;51.15;101005.13;4912005;29;20041;-76
2022/01/10 07:45:29;;;;;;;48.85;19.55;;;;;;;-10.35;51.16;100995.16;4896517;29;20037;-78
2022/01/10 07:47:55;;;;;;;46.80;20.58;;;;;;;-10.30;51.45;100993.59;4912488;29;20049;-81
2022/01/10 07:50:21;;;;;;;42.35;19.42;;;;;;;-10.18;51.52;100999.09;4912291;29;20390;-78
2022/01/10 07:52:47;;;;;;;45.05;21.05;;;;;;;-10.02;51.82;100992.66;4880632;29;20060;-77
2022/01/10 07:55:14;;;;;;;41.80;17.65;;;;;;;-9.86;51.37;100981.03;4912325;29;20197;-78
2022/01/10 07:57:39;;;;;;;36.20;17.67;;;;;;;-9.66;51.30;100987.69;4881077;29;20052;-78
2022/01/10 08:00:06;;;;;;;36.30;17.70;;;;;;;-9.60;50.92;100979.19;4880561;29;20501;-77
2022/01/10 08:02:38;;;;;;;34.10;17.60;;;;;;;-9.46;50.50;100983.03;4896708;29;20100;-79
2022/01/10 08:05:07;;;;;;;38.60;16.92;;;;;;;-9.26;50.32;100986.16;4912874;29;20143;-78
2022/01/10 08:07:33;;;;;;;29.33;14.98;;;;;;;-9.13;49.77;100972.69;4900165;29;20048;-78
2022/01/10 08:09:59;;;;;;;28.08;14.77;;;;;;;-9.05;49.22;100986.72;4900202;29;20139;-77
2022/01/10 08:12:25;;;;;;;28.67;13.95;;;;;;;-8.86;49.31;100976.81;4900111;29;20052;-78
2022/01/10 08:14:51;;;;;;;25.73;13.20;;;;;;;-8.77;48.61;100973.56;4899410;29;20044;-78
2022/01/10 08:17:17;;;;;;;27.85;13.55;;;;;;;-8.82;48.31;100983.81;4899734;29;20048;-77
2022/01/10 08:19:43;;;;;;;31.00;14.38;;;;;;;-8.87;48.83;100969.88;4899912;29;20107;-80
2022/01/10 08:22:09;;;;;;;25.45;12.38;;;;;;;-8.77;48.94;100970.97;4884122;29;20497;-79
2022/01/10 08:24:35;;;;;;;24.95;11.95;;;;;;;-8.73;48.27;100968.47;4884161;29;20036;-78
2022/01/10 08:27:01;;;;;;;20.30;11.18;;;;;;;-8.64;47.52;100955.75;4899959;29;20072;-79
2022/01/10 08:29:29;;;;;;;20.65;11.43;;;;;;;-8.49;47.91;100951.78;4901575;29;20051;-78
2022/01/10 08:31:55;;;;;;;17.33;8.85;;;;;;;-8.82;46.85;100944.94;4883973;29;20044;-78
2022/01/10 08:34:21;;;;;;;16.60;9.50;;;;;;;-8.77;47.79;100958.88;4884013;29;20076;-77
2022/01/10 08:36:47;;;;;;;18.92;9.13;;;;;;;-8.53;47.88;100940.44;4884175;29;20048;-77
2022/01/10 08:39:14;;;;;;;16.27;9.27;;;;;;;-8.45;47.18;100944.09;4899426;29;20052;-79
2022/01/10 08:41:40;;;;;;;12.80;8.35;;;;;;;-8.41;47.16;100937.25;4884018;29;20066;-78
2022/01/10 08:44:06;;;;;;;17.63;7.65;;;;;;;-8.39;46.63;100938.16;4868679;29;20056;-79
2022/01/10 08:46:33;;;;;;;14.43;7.63;;;;;;;-8.27;46.85;100933.22;4899459;29;20060;-78
2022/01/10 08:48:59;;;;;;;11.18;7.15;;;;;;;-8.21;46.47;100912.56;4915207;29;20126;-77
2022/01/10 08:51:25;;;;;;;13.63;7.50;;;;;;;-8.15;45.54;100928.28;4899680;29;20461;-78
2022/01/10 08:53:51;;;;;;;30.60;9.20;;;;;;;-8.12;45.54;100912.78;4883777;29;20059;-78
2022/01/10 08:56:17;;;;;;;10.52;6.10;;;;;;;-7.92;45.92;100922.69;4898978;29;20044;-78
2022/01/10 08:58:43;;;;;;;13.02;7.22;;;;;;;-7.74;45.90;100915.25;4899316;29;20517;-78
2022/01/10 09:01:09;;;;;;;10.50;6.40;;;;;;;-7.57;45.94;100912.97;4883613;29;20515;-77
2022/01/10 09:03:36;;;;;;;11.23;6.72;;;;;;;-7.46;45.55;100915.78;4883518;29;20052;-80
2022/01/10 09:06:02;;;;;;;12.85;6.68;;;;;;;-7.46;45.66;100906.25;4899171;29;20096;-78
2022/01/10 09:08:32;;;;;;;13.57;6.72;;;;;;;-7.53;45.84;100908.72;4867996;29;20053;-77
2022/01/10 09:10:58;;;;;;;14.55;7.05;;;;;;;-7.48;45.84;100905.38;4867541;29;20519;-78
2022/01/10 09:13:24;;;;;;;11.15;5.93;;;;;;;-7.53;45.65;100885.34;4882989;29;20480;-76
2022/01/10 09:15:50;;;;;;;14.00;6.68;;;;;;;-7.71;45.88;100898.84;4898681;29;20056;-78
2022/01/10 09:18:16;;;;;;;12.32;6.32;;;;;;;-7.68;46.12;100894.59;4898225;29;20087;-78
2022/01/10 09:20:43;;;;;;;11.60;6.47;;;;;;;-7.72;46.08;100894.50;4914707;29;20087;-78
2022/01/10 09:23:09;;;;;;;13.55;6.72;;;;;;;-7.89;45.98;100907.19;4898880;29;20412;-78
2022/01/10 09:25:36;;;;;;;14.85;6.15;;;;;;;-7.95;46.11;100896.66;4883155;29;20045;-79
2022/01/10 09:28:02;;;;;;;11.27;6.40;;;;;;;-7.86;46.21;100894.25;4883047;29;20040;-79
2022/01/10 09:30:28;;;;;;;9.15;5.72;;;;;;;-7.87;46.07;100888.19;4914422;29;20040;-79
2022/01/10 09:32:54;;;;;;;11.25;6.05;;;;;;;-7.84;46.18;100887.38;4867834;29;20040;-78
2022/01/10 09:35:24;;;;;;;9.70;5.80;;;;;;;-7.63;45.74;100884.31;4900264;29;20108;-77
2022/01/10 09:37:52;;;;;;;11.93;4.97;;;;;;;-7.60;45.59;100864.47;4860175;29;20057;-78
2022/01/10 09:40:19;;;;;;;8.35;5.03;;;;;;;-7.58;45.23;100864.50;4844822;29;20108;-79
2022/01/10 09:42:46;;;;;;;11.27;5.78;;;;;;;-7.43;45.24;100861.28;4859649;29;20061;-78
2022/01/10 09:45:12;;;;;;;10.60;5.82;;;;;;;-7.37;45.52;100859.69;4860295;29;20050;-78
2022/01/10 09:47:38;;;;;;;9.63;5.80;;;;;;;-7.40;46.01;100856.16;4875786;29;20128;-78
2022/01/10 09:50:06;;;;;;;9.07;5.88;;;;;;;-7.39;45.33;100840.56;4875580;29;20073;-78
2022/01/10 09:52:33;;;;;;;9.55;5.93;;;;;;;-7.22;45.56;100838.28;4875313;29;20555;-80
2022/01/10 09:54:59;;;;;;;13.52;6.97;;;;;;;-7.03;45.11;100848.94;4860177;29;20494;-79
2022/01/10 09:57:25;;;;;;;11.32;6.57;;;;;;;-6.97;44.94;100849.91;4875246;29;20057;-78
2022/01/10 09:59:51;;;;;;;10.68;5.50;;;;;;;-6.76;44.57;100844.16;4876261;29;20060;-80
2022/01/10 10:02:18;;;;;;;10.05;6.03;;;;;;;-6.78;44.74;100847.56;4845737;29;20136;-78
2022/01/10 10:04:44;;;;;;;11.02;6.65;;;;;;;-6.90;44.76;100845.66;4861185;29;20041;-78
2022/01/10 10:07:10;;;;;;;14.38;7.22;;;;;;;-6.88;44.93;100843.97;4829267;29;20101;-78
2022/01/10 10:09:36;;;;;;;12.15;6.78;;;;;;;-6.73;45.25;100845.91;4859977;29;20566;-79
2022/01/10 10:12:03;;;;;;;14.07;7.30;;;;;;;-6.80;44.94;100852.75;4844288;29;20045;-78
2022/01/10 10:14:29;;;;;;;13.70;7.30;;;;;;;-7.06;44.11;100843.69;4836520;29;20048;-79
2022/01/10 10:16:57;;;;;;;15.63;7.38;;;;;;;-7.11;45.20;100844.50;4882905;29;20416;-78
2022/01/10 10:19:27;;;;;;;14.80;7.32;;;;;;;-7.07;44.86;100839.34;4898045;29;20523;-78
2022/01/10 10:21:54;;;;;;;15.00;8.18;;;;;;;-7.22;44.52;100814.88;4898198;29;20523;-79
2022/01/10 10:24:21;;;;;;;15.57;7.25;;;;;;;-7.36;44.74;100830.25;4866726;29;20036;-78
2022/01/10 10:26:47;;;;;;;13.93;7.75;;;;;;;-7.47;44.78;100830.91;4882229;29;20476;-78
2022/01/10 10:29:17;;;;;;;15.05;7.78;;;;;;;-7.68;44.84;100831.41;4913300;29;20052;-78
2022/01/10 10:31:45;;;;;;;14.73;7.40;;;;;;;-8.08;44.77;100823.78;4913082;29;20048;-78
2022/01/10 10:34:12;;;;;;;14.32;7.85;;;;;;;-8.36;45.50;100821.47;4897703;29;20049;-78
2022/01/10 10:36:39;;;;;;;16.13;7.75;;;;;;;-8.47;46.08;100817.84;4913153;29;20496;-79
2022/01/10 10:39:07;;;;;;;12.20;5.82;;;;;;;-8.47;46.49;100810.91;4913511;29;20192;-78
2022/01/10 10:41:34;;;;;;;16.23;7.97;;;;;;;-8.49;46.45;100812.63;4898254;29;20067;-78
2022/01/10 10:43:59;;;;;;;14.80;6.38;;;;;;;-8.49;46.42;100801.38;4915816;29;20528;-78
2022/01/10 10:46:27;;;;;;;9.85;5.75;;;;;;;-8.56;46.44;100800.38;4887465;29;20047;-78
2022/01/10 10:48:57;;;;;;;9.30;5.60;;;;;;;-8.65;46.56;100801.06;4912895;29;20044;-78
2022/01/10 10:51:27;;;;;;;10.63;5.55;;;;;;;-8.72;47.17;100796.59;4889589;29;20040;-78
2022/01/10 10:53:54;;;;;;;;;;;;;;;-8.77;47.00;100795.59;4869691;29;20055;-78
2022/01/10 10:56:21;;;;;;;9.52;4.65;;;;;;;-8.85;47.06;100794.56;4916053;29;20013;-76
2022/01/10 10:58:47;;;;;;;18.88;5.35;;;;;;;-8.89;47.16;100791.03;4884697;29;20135;-78
2022/01/10 11:01:13;;;;;;;10.43;4.53;;;;;;;-8.92;47.66;100787.50;4900482;29;20532;-77
2022/01/10 11:03:40;;;;;;;10.00;4.63;;;;;;;-8.94;47.47;100787.50;4915637;29;20133;-78
2022/01/10 11:06:07;;;;;;;9.50;4.55;;;;;;;-9.00;47.87;100782.16;4903469;29;20068;-77
2022/01/10 11:08:35;;;;;;;6.65;4.20;;;;;;;-9.06;48.39;100775.16;4896762;29;20055;-78
2022/01/10 11:11:02;;;;;;;9.88;4.75;;;;;;;-9.08;48.43;100774.22;4896960;29;20078;-78
2022/01/10 11:13:28;;;;;;;6.88;4.05;;;;;;;-9.05;49.17;100779.47;4881985;29;20083;-84
2022/01/10 11:15:58;;;;;;;7.75;4.60;;;;;;;-9.03;49.42;100776.03;4865626;29;20041;-83
2022/01/10 11:18:24;;;;;;;8.85;3.90;;;;;;;-9.10;49.72;100775.91;4898279;29;20044;-79
2022/01/10 11:20:52;;;;;;;12.77;4.70;;;;;;;-9.13;49.43;100765.47;4897119;29;20053;-79
2022/01/10 11:23:18;;;;;;;9.80;4.10;;;;;;;-9.35;49.04;100769.28;4864823;29;20037;-76